Time;durP1;ratioP1;P1;durP2;ratioP2;P2;SDS_P1;SDS_P2;PMS_P1;PMS_P2;Temp;Humidity;BMP_temperature;BMP_pressure;BME280_temperature;BME280_humidity;BME280_pressure;Samples;Min_cycle;Max_cycle;Signal;HPM_P1;HPM_P2
2023/10/24 00:00:02;;;;;;;11.37;3.40;;;;;;;12.39;100.00;149223.56;5018348;28;20683;-51
2023/10/24 00:02:38;;;;;;;5.47;2.57;;;;;;;12.49;100.00;149246.00;5014947;28;20231;-53
2023/10/24 00:05:06;;;;;;;7.17;4.60;;;;;;;12.39;100.00;149223.56;5031502;28;20304;-51
2023/10/24 00:07:32;;;;;;;10.13;5.00;;;;;;;12.09;100.00;149151.28;5017879;28;20223;-51
2023/10/24 00:09:59;;;;;;;10.27;5.03;;;;;;;12.02;100.00;149132.56;5013816;28;20654;-51
2023/10/24 00:12:27;;;;;;;11.63;6.40;;;;;;;11.77;100.00;149072.69;5021205;28;20715;-51
2023/10/24 00:14:55;;;;;;;10.97;7.10;;;;;;;11.66;100.00;149046.53;5016093;28;20227;-51
2023/10/24 00:17:21;;;;;;;9.73;6.43;;;;;;;11.58;100.00;149027.84;5018266;28;20227;-51
2023/10/24 00:19:47;;;;;;;11.63;7.17;;;;;;;11.51;100.00;149011.63;5013865;28;20223;-52
2023/10/24 00:22:14;;;;;;;12.73;7.37;;;;;;;11.56;100.00;149022.88;5017919;28;21025;-51
2023/10/24 00:24:41;;;;;;;10.13;6.70;;;;;;;11.57;100.00;149024.09;5015783;28;20235;-53
2023/10/24 00:27:07;;;;;;;11.77;7.27;;;;;;;11.54;100.00;149016.63;5018462;28;20237;-51
2023/10/24 00:29:35;;;;;;;14.63;7.00;;;;;;;11.43;100.00;148991.69;5015353;28;20223;-53
2023/10/24 00:32:02;;;;;;;5.97;1.93;;;;;;;11.75;100.00;149067.69;5030521;28;20601;-51
2023/10/24 00:34:28;;;;;;;7.57;6.00;;;;;;;12.19;100.00;149174.97;5024031;28;20223;-51
2023/10/24 00:36:56;;;;;;;9.20;5.53;;;;;;;12.12;100.00;149157.50;5029631;28;20231;-51
2023/10/24 00:39:23;;;;;;;4.13;1.00;;;;;;;12.52;100.00;149254.75;5017641;28;20548;-53
2023/10/24 00:41:50;;;;;;;2.57;1.53;;;;;;;13.39;100.00;149463.03;5014682;28;20230;-53
2023/10/24 00:44:16;;;;;;;1.30;0.60;;;;;;;13.42;100.00;149471.84;5030006;28;21149;-54
2023/10/24 00:46:44;;;;;;;1.70;0.70;;;;;;;13.75;100.00;149550.44;5010880;28;20235;-54
2023/10/24 00:49:11;;;;;;;10.23;5.00;;;;;;;13.24;100.00;149426.88;5020934;28;20230;-52
2023/10/24 00:51:38;;;;;;;12.97;6.77;;;;;;;12.66;100.00;149287.19;5014539;28;20235;-52
2023/10/24 00:54:05;;;;;;;68.33;9.33;;;;;;;12.00;100.00;149127.56;5020685;28;20231;-53
2023/10/24 00:56:32;;;;;;;29.97;8.73;;;;;;;11.65;100.00;149045.31;5023645;28;20245;-51
2023/10/24 00:59:00;;;;;;;12.70;8.60;;;;;;;11.56;100.00;149021.59;5015782;28;20238;-51
2023/10/24 01:01:28;;;;;;;14.10;8.30;;;;;;;11.23;100.00;148944.34;5015363;28;20227;-51
2023/10/24 01:03:56;;;;;;;16.67;9.27;;;;;;;11.21;100.00;148939.34;5014106;28;20246;-51
2023/10/24 01:06:23;;;;;;;13.50;9.17;;;;;;;11.13;100.00;148919.41;5022627;28;20223;-51
2023/10/24 01:08:50;;;;;;;19.20;9.87;;;;;;;11.01;100.00;148890.78;5018776;28;20233;-51
2023/10/24 01:11:17;;;;;;;17.37;9.80;;;;;;;11.05;100.00;148900.75;5030232;28;20230;-51
2023/10/24 01:13:44;;;;;;;13.20;9.57;;;;;;;10.97;100.00;148879.59;5011975;28;20228;-51
2023/10/24 01:16:10;;;;;;;17.93;10.03;;;;;;;10.89;100.00;148862.16;5030208;28;20577;-51
2023/10/24 01:18:37;;;;;;;15.70;9.57;;;;;;;10.89;100.00;148862.16;5014741;28;20238;-53
2023/10/24 01:21:05;;;;;;;13.43;9.70;;;;;;;10.93;100.00;148870.84;5012230;28;20247;-51
2023/10/24 01:23:34;;;;;;;13.00;10.07;;;;;;;10.84;100.00;148849.69;5014956;28;20273;-54
2023/10/24 01:26:01;;;;;;;13.90;9.77;;;;;;;10.88;100.00;148859.66;5023479;28;20226;-52
2023/10/24 01:28:29;;;;;;;14.70;9.50;;;;;;;10.91;100.00;148865.84;5021337;28;20217;-54
2023/10/24 01:30:56;;;;;;;14.20;8.23;;;;;;;10.99;100.00;148885.78;5017617;28;20231;-53
2023/10/24 01:33:24;;;;;;;6.87;5.87;;;;;;;11.19;100.00;148933.13;5029342;28;20567;-52
2023/10/24 01:35:50;;;;;;;8.63;5.30;;;;;;;11.36;100.00;148975.50;5019307;28;20227;-51
2023/10/24 01:38:17;;;;;;;6.73;4.20;;;;;;;11.47;100.00;149000.44;5033432;28;20655;-50
2023/10/24 01:40:45;;;;;;;8.37;5.40;;;;;;;11.57;100.00;149025.34;5014514;28;20715;-50
2023/10/24 01:43:11;;;;;;;6.93;5.13;;;;;;;11.57;100.00;149025.34;5013809;28;20229;-50
2023/10/24 01:45:38;;;;;;;12.77;8.33;;;;;;;11.56;100.00;149022.88;5012138;28;20809;-51
2023/10/24 01:48:05;;;;;;;13.37;8.33;;;;;;;11.41;100.00;148986.69;5032860;28;20220;-52
2023/10/24 01:50:36;;;;;;;13.00;9.57;;;;;;;11.16;100.00;148926.88;5022103;28;20216;-52
2023/10/24 01:53:02;;;;;;;15.17;9.93;;;;;;;11.11;100.00;148913.22;5015664;28;20254;-50
2023/10/24 01:55:29;;;;;;;13.50;9.57;;;;;;;10.97;100.00;148880.81;5017713;28;20583;-50
2023/10/24 01:57:57;;;;;;;16.17;10.70;;;;;;;10.93;100.00;148872.13;5010737;28;20226;-50
2023/10/24 02:00:24;;;;;;;14.10;10.63;;;;;;;10.85;100.00;148852.19;5017944;28;20932;-50
2023/10/24 02:02:53;;;;;;;11.43;9.63;;;;;;;10.83;100.00;148845.94;5014149;28;20308;-52
2023/10/24 02:05:20;;;;;;;12.73;10.07;;;;;;;10.77;100.00;148833.47;5015087;28;20269;-50
2023/10/24 02:07:47;;;;;;;13.57;10.17;;;;;;;10.81;100.00;148842.22;5012072;28;20224;-52
2023/10/24 02:10:14;;;;;;;13.00;10.50;;;;;;;10.78;100.00;148835.97;5015974;28;20234;-51
2023/10/24 02:12:41;;;;;;;17.17;10.93;;;;;;;10.80;100.00;148839.72;5011048;28;20260;-50
2023/10/24 02:15:10;;;;;;;16.47;11.07;;;;;;;10.80;100.00;148839.72;5018801;28;20603;-53
2023/10/24 02:17:37;;;;;;;14.70;10.40;;;;;;;10.77;100.00;148833.47;5020152;28;20704;-53
2023/10/24 02:20:05;;;;;;;16.57;11.10;;;;;;;10.78;100.00;148835.97;5011335;28;20221;-50
2023/10/24 02:22:31;;;;;;;16.93;11.97;;;;;;;10.74;100.00;148826.00;5032282;28;20276;-51
2023/10/24 02:24:58;;;;;;;49.33;13.33;;;;;;;10.67;100.00;148807.34;5010008;28;20323;-53
2023/10/24 02:27:25;;;;;;;19.63;12.20;;;;;;;10.62;100.00;148796.09;5016801;28;20227;-53
2023/10/24 02:29:52;;;;;;;22.77;12.30;;;;;;;10.61;100.00;148793.59;5016135;28;20244;-52
2023/10/24 02:32:20;;;;;;;308.60;21.67;;;;;;;10.50;100.00;148766.25;5022002;28;20230;-50
2023/10/24 02:34:49;;;;;;;133.90;16.03;;;;;;;10.45;100.00;148755.03;5015910;28;20727;-50
2023/10/24 02:37:15;;;;;;;132.57;14.97;;;;;;;10.38;100.00;148738.81;5017080;28;20213;-50
2023/10/24 02:39:43;;;;;;;16.83;11.80;;;;;;;10.44;100.00;148752.53;5010890;28;20223;-51
2023/10/24 02:42:10;;;;;;;33.10;12.80;;;;;;;10.43;100.00;148751.31;5014441;28;20278;-50
2023/10/24 02:44:36;;;;;;;20.23;12.20;;;;;;;10.42;100.00;148748.81;5020280;28;20320;-52
2023/10/24 02:47:03;;;;;;;27.33;13.37;;;;;;;10.40;100.00;148743.84;5018852;28;20237;-53
2023/10/24 02:49:33;;;;;;;23.50;12.47;;;;;;;10.41;100.00;148746.31;5021646;28;20238;-50
2023/10/24 02:51:59;;;;;;;108.90;14.80;;;;;;;10.27;100.00;148712.63;5017793;28;20281;-50
2023/10/24 02:54:26;;;;;;;40.03;12.77;;;;;;;10.27;100.00;148712.63;5012980;28;20229;-50
2023/10/24 02:56:53;;;;;;;16.63;12.27;;;;;;;10.30;100.00;148718.88;5026261;28;20216;-50
2023/10/24 02:59:19;;;;;;;14.17;10.70;;;;;;;10.25;100.00;148707.66;5019516;28;20226;-50
2023/10/24 03:01:46;;;;;;;14.47;11.53;;;;;;;10.25;100.00;148707.66;5028148;28;20313;-51
2023/10/24 03:04:12;;;;;;;15.47;11.70;;;;;;;10.33;100.00;148727.56;5021803;28;20221;-50
2023/10/24 03:06:41;;;;;;;13.73;10.60;;;;;;;10.32;100.00;148725.09;5010470;28;20214;-51
2023/10/24 03:09:08;;;;;;;15.53;11.03;;;;;;;10.30;100.00;148720.09;5021347;28;20237;-52
2023/10/24 03:11:34;;;;;;;15.77;11.80;;;;;;;10.32;100.00;148723.84;5029327;28;20710;-50
2023/10/24 03:14:03;;;;;;;18.20;12.40;;;;;;;10.27;100.00;148712.63;5011656;28;20609;-50
2023/10/24 03:16:29;;;;;;;16.87;13.23;;;;;;;10.27;100.00;148712.63;5015869;28;20230;-51
2023/10/24 03:18:57;;;;;;;16.47;12.77;;;;;;;10.31;100.00;148722.59;5013240;28;20567;-51
2023/10/24 03:21:23;;;;;;;17.77;12.80;;;;;;;10.27;100.00;148711.41;5033070;28;20705;-50
2023/10/24 03:23:51;;;;;;;15.50;12.37;;;;;;;10.32;100.00;148723.84;5031128;28;20221;-51
2023/10/24 03:26:19;;;;;;;17.03;12.27;;;;;;;10.37;100.00;148736.31;5020270;28;20217;-51
2023/10/24 03:28:46;;;;;;;16.13;11.20;;;;;;;10.40;100.00;148743.84;5015557;28;20241;-51
2023/10/24 03:31:12;;;;;;;17.27;12.00;;;;;;;10.41;100.00;148746.31;5219711;22;20232;-50
2023/10/24 03:33:39;;;;;;;14.87;10.90;;;;;;;10.42;100.00;148747.53;5001366;28;20241;-52
2023/10/24 03:36:11;;;;;;;13.00;10.87;;;;;;;10.42;100.00;148748.81;5019942;28;20232;-51
2023/10/24 03:38:38;;;;;;;15.80;11.30;;;;;;;10.45;100.00;148756.28;5019516;28;20227;-52
2023/10/24 03:41:06;;;;;;;14.50;10.80;;;;;;;10.47;100.00;148761.28;5015295;28;20226;-51
2023/10/24 03:43:32;;;;;;;13.20;10.40;;;;;;;10.51;100.00;148768.75;4999252;28;20226;-52
2023/10/24 03:45:59;;;;;;;12.47;10.27;;;;;;;10.46;100.00;148757.50;5014924;28;20227;-52
2023/10/24 03:48:25;;;;;;;13.17;10.17;;;;;;;10.49;100.00;148764.97;5020081;28;20213;-50
2023/10/24 03:50:52;;;;;;;13.63;10.83;;;;;;;10.48;100.00;148762.50;5019369;28;20571;-50
2023/10/24 03:53:19;;;;;;;12.90;10.40;;;;;;;10.47;100.00;148760.00;5018904;28;20215;-50
2023/10/24 03:55:55;;;;;;;14.97;10.47;;;;;;;10.45;100.00;148756.28;5015600;28;20216;-51
2023/10/24 03:58:23;;;;;;;14.60;10.20;;;;;;;10.47;100.00;148761.28;5016887;28;20293;-50
2023/10/24 04:00:50;;;;;;;15.43;10.60;;;;;;;10.47;100.00;148760.00;5016703;28;20229;-51
2023/10/24 04:03:16;;;;;;;14.17;9.80;;;;;;;10.46;100.00;148758.78;5019305;28;20225;-50
2023/10/24 04:05:43;;;;;;;15.93;9.23;;;;;;;10.50;100.00;148766.25;5016833;28;20661;-50
2023/10/24 04:08:10;;;;;;;14.03;10.73;;;;;;;10.47;100.00;148760.00;5017583;28;20624;-51
2023/10/24 04:10:37;;;;;;;13.10;9.50;;;;;;;10.47;100.00;148761.28;5014613;28;20232;-50
2023/10/24 04:13:04;;;;;;;10.50;9.20;;;;;;;10.50;100.00;148767.47;5018695;28;20238;-51
2023/10/24 04:15:37;;;;;;;15.63;9.43;;;;;;;10.50;100.00;148766.25;5018369;28;20232;-51
2023/10/24 04:18:04;;;;;;;12.50;9.67;;;;;;;10.52;100.00;148771.22;5018440;28;20222;-51
2023/10/24 04:20:36;;;;;;;10.83;8.87;;;;;;;10.52;100.00;148772.47;5018600;28;20585;-52
2023/10/24 04:23:03;;;;;;;11.20;8.73;;;;;;;10.53;100.00;148773.72;5013985;28;20253;-50
2023/10/24 04:25:30;;;;;;;14.23;8.80;;;;;;;10.55;100.00;148779.94;5019815;28;20232;-50
2023/10/24 04:27:58;;;;;;;10.30;8.47;;;;;;;10.60;100.00;148792.38;5013199;28;20228;-50
2023/10/24 04:30:26;;;;;;;9.87;8.03;;;;;;;10.63;100.00;148798.59;5022356;28;20212;-51
2023/10/24 04:32:55;;;;;;;10.93;7.23;;;;;;;10.68;100.00;148811.03;5012764;28;20577;-51
2023/10/24 04:35:21;;;;;;;10.80;7.43;;;;;;;10.74;100.00;148824.78;5017374;28;20229;-51
2023/10/24 04:37:48;;;;;;;10.00;6.00;;;;;;;10.71;100.00;148817.31;5012818;28;20222;-51
2023/10/24 04:40:15;;;;;;;10.17;6.03;;;;;;;10.74;100.00;148824.78;5018611;28;20239;-50
2023/10/24 04:42:42;;;;;;;24.00;18.87;;;;;;;10.72;100.00;148821.00;4995676;28;20233;-51
2023/10/24 04:45:09;;;;;;;16.70;12.93;;;;;;;10.72;100.00;148819.78;5018466;28;20725;-51
2023/10/24 04:47:36;;;;;;;14.20;10.73;;;;;;;10.74;100.00;148826.00;5017590;28;20589;-53
2023/10/24 04:50:06;;;;;;;11.63;8.90;;;;;;;10.74;100.00;148826.00;5015494;28;20226;-50
2023/10/24 04:52:32;;;;;;;16.13;11.40;;;;;;;10.71;100.00;148818.53;5016637;28;20719;-51
2023/10/24 04:54:59;;;;;;;12.20;9.40;;;;;;;10.74;100.00;148826.00;5014976;28;20238;-50
2023/10/24 04:57:26;;;;;;;12.67;10.13;;;;;;;10.74;100.00;148824.78;5017584;28;20216;-50
2023/10/24 04:59:52;;;;;;;9.33;8.33;;;;;;;10.75;100.00;148827.25;5013808;28;20222;-50
2023/10/24 05:02:19;;;;;;;10.13;8.70;;;;;;;10.74;100.00;148824.78;5018193;28;20576;-51
2023/10/24 05:04:46;;;;;;;9.97;8.37;;;;;;;10.78;100.00;148834.75;5018258;28;20312;-52
2023/10/24 05:07:14;;;;;;;14.97;13.17;;;;;;;10.86;100.00;148854.66;5018814;28;20250;-50
2023/10/24 05:09:40;;;;;;;13.90;12.10;;;;;;;10.92;100.00;148869.63;4995957;28;20286;-50
2023/10/24 05:12:07;;;;;;;23.80;21.30;;;;;;;10.95;100.00;148874.59;5018125;28;20288;-51
2023/10/24 05:14:34;;;;;;;11.50;10.30;;;;;;;10.96;100.00;148878.31;5018958;28;20214;-50
2023/10/24 05:17:00;;;;;;;16.10;12.60;;;;;;;10.95;100.00;148874.59;5014857;28;20221;-52
2023/10/24 05:19:27;;;;;;;17.07;13.50;;;;;;;10.99;100.00;148885.78;5020517;28;20215;-51
2023/10/24 05:21:54;;;;;;;10.63;9.03;;;;;;;11.03;100.00;148895.75;5013389;28;20231;-52
2023/10/24 05:24:22;;;;;;;11.17;8.40;;;;;;;11.08;100.00;148908.22;5015857;28;20222;-52
2023/10/24 05:26:48;;;;;;;7.73;5.73;;;;;;;11.23;100.00;148943.09;5014652;28;20771;-50
2023/10/24 05:29:15;;;;;;;12.23;7.30;;;;;;;11.34;100.00;148970.53;5017372;28;20250;-52
2023/10/24 05:31:41;;;;;;;23.70;10.20;;;;;;;11.11;100.00;148913.22;5016052;28;20222;-50
2023/10/24 05:34:08;;;;;;;75.60;12.57;;;;;;;10.89;100.00;148862.16;5016758;28;20240;-51
2023/10/24 05:36:35;;;;;;;69.20;13.97;;;;;;;10.84;100.00;148848.41;5015904;28;20242;-52
2023/10/24 05:39:01;;;;;;;261.70;20.57;;;;;;;10.73;100.00;148822.28;5016965;28;20229;-50
2023/10/24 05:41:29;;;;;;;437.03;25.97;;;;;;;10.64;100.00;148801.09;5016065;28;20230;-51
2023/10/24 05:43:56;;;;;;;127.43;17.13;;;;;;;10.63;100.00;148798.59;5018116;28;20230;-52
2023/10/24 05:46:23;;;;;;;47.73;15.20;;;;;;;10.65;100.00;148803.56;5017757;28;20237;-50
2023/10/24 05:48:49;;;;;;;213.63;19.27;;;;;;;10.62;100.00;148796.09;5016768;28;20229;-51
2023/10/24 05:51:22;;;;;;;37.37;13.87;;;;;;;10.61;100.00;148794.88;5015501;28;20256;-51
2023/10/24 05:53:49;;;;;;;53.07;13.53;;;;;;;10.57;100.00;148783.69;5010059;28;20350;-50
2023/10/24 05:56:16;;;;;;;18.03;11.33;;;;;;;10.58;100.00;148786.19;5004968;28;20254;-51
2023/10/24 05:58:45;;;;;;;15.77;10.43;;;;;;;10.60;100.00;148791.16;5013702;28;20736;-51
2023/10/24 06:01:12;;;;;;;14.47;10.27;;;;;;;10.58;100.00;148786.19;5018143;28;20233;-51
2023/10/24 06:03:38;;;;;;;14.17;9.90;;;;;;;10.57;100.00;148784.91;5015213;28;20225;-53
2023/10/24 06:06:05;;;;;;;12.07;9.67;;;;;;;10.57;100.00;148783.69;5013271;28;20224;-51
2023/10/24 06:08:32;;;;;;;11.10;8.63;;;;;;;10.59;100.00;148788.69;5017258;28;20221;-52
2023/10/24 06:11:00;;;;;;;11.30;8.87;;;;;;;10.57;100.00;148784.91;5011460;28;20249;-51
2023/10/24 06:13:27;;;;;;;13.97;8.47;;;;;;;10.58;100.00;148787.41;5005243;28;20224;-52
2023/10/24 06:15:55;;;;;;;11.47;8.67;;;;;;;10.60;100.00;148792.38;5012770;28;20325;-52
2023/10/24 06:18:22;;;;;;;12.53;8.17;;;;;;;10.58;100.00;148787.41;5018890;28;20578;-51
2023/10/24 06:20:49;;;;;;;13.00;7.83;;;;;;;10.58;100.00;148787.41;5011488;28;20702;-51
2023/10/24 06:23:15;;;;;;;9.83;7.47;;;;;;;10.61;100.00;148793.59;5017907;28;20233;-51
2023/10/24 06:25:43;;;;;;;13.27;7.17;;;;;;;10.63;100.00;148799.84;5016868;28;20240;-51
2023/10/24 06:28:10;;;;;;;10.27;7.67;;;;;;;10.68;100.00;148811.03;5017828;28;20225;-50
2023/10/24 06:30:37;;;;;;;8.87;6.37;;;;;;;10.69;100.00;148812.31;5013222;28;20261;-50
2023/10/24 06:33:05;;;;;;;22.60;18.57;;;;;;;10.71;100.00;148817.31;5012281;28;20248;-50
2023/10/24 06:35:36;;;;;;;13.83;10.20;;;;;;;10.72;100.00;148819.78;5016325;28;20225;-50
2023/10/24 06:38:02;;;;;;;15.27;11.50;;;;;;;10.76;100.00;148829.75;5012723;28;20713;-50
2023/10/24 06:40:29;;;;;;;16.40;12.77;;;;;;;10.77;100.00;148833.47;5018243;28;20219;-50
2023/10/24 06:42:55;;;;;;;20.57;13.00;;;;;;;10.79;100.00;148837.22;5011619;28;20231;-50
2023/10/24 06:45:23;;;;;;;12.53;8.73;;;;;;;10.84;100.00;148849.69;5017713;28;20226;-50
2023/10/24 06:47:50;;;;;;;11.53;8.60;;;;;;;10.78;100.00;148834.75;5014060;28;20227;-50
2023/10/24 06:50:18;;;;;;;11.23;9.20;;;;;;;10.76;100.00;148829.75;5016557;28;20228;-50
2023/10/24 06:52:45;;;;;;;10.97;8.33;;;;;;;10.80;100.00;148839.72;5014951;28;20230;-51
2023/10/24 06:55:11;;;;;;;12.03;9.60;;;;;;;10.81;100.00;148842.22;5018012;28;20235;-52
2023/10/24 06:57:38;;;;;;;16.80;15.10;;;;;;;10.83;100.00;148847.19;5016240;28;20229;-50
2023/10/24 07:00:06;;;;;;;20.93;14.43;;;;;;;10.85;100.00;148850.91;5015876;28;20707;-51
2023/10/24 07:02:34;;;;;;;12.40;9.40;;;;;;;10.89;100.00;148860.88;5016857;28;20707;-54
2023/10/24 07:05:01;;;;;;;8.80;7.03;;;;;;;10.90;100.00;148863.38;5014984;28;20250;-54
2023/10/24 07:07:29;;;;;;;10.93;8.43;;;;;;;10.85;100.00;148850.91;5018387;28;20227;-54
2023/10/24 07:09:55;;;;;;;11.97;10.33;;;;;;;10.88;100.00;148859.66;5014748;28;20222;-51
2023/10/24 07:12:22;;;;;;;17.03;14.93;;;;;;;10.93;100.00;148870.84;5023294;28;20230;-51
2023/10/24 07:14:52;;;;;;;18.73;15.17;;;;;;;10.93;100.00;148872.13;5017221;28;20235;-51
2023/10/24 07:17:19;;;;;;;13.20;11.00;;;;;;;10.98;100.00;148883.31;5019748;28;20305;-51
2023/10/24 07:19:46;;;;;;;15.97;11.83;;;;;;;10.97;100.00;148880.81;5016959;28;20720;-51
2023/10/24 07:22:12;;;;;;;16.27;13.20;;;;;;;11.02;100.00;148893.28;5019775;28;20239;-50
2023/10/24 07:24:40;;;;;;;11.13;9.00;;;;;;;11.07;100.00;148904.50;5019045;28;20222;-52
2023/10/24 07:27:08;;;;;;;8.53;6.10;;;;;;;11.21;100.00;148939.34;5018342;28;20685;-52
2023/10/24 07:29:35;;;;;;;11.17;7.40;;;;;;;11.28;100.00;148954.31;5016569;28;20277;-51
2023/10/24 07:32:01;;;;;;;10.07;7.80;;;;;;;11.31;100.00;148963.06;5017035;28;20230;-52
2023/10/24 07:34:32;;;;;;;9.33;7.40;;;;;;;11.35;100.00;148971.75;5019951;28;20226;-52
2023/10/24 07:36:59;;;;;;;11.33;6.70;;;;;;;11.41;100.00;148985.47;5013147;28;20327;-51
2023/10/24 07:39:26;;;;;;;13.60;9.63;;;;;;;11.42;100.00;148989.19;5020630;28;20221;-53
2023/10/24 07:41:54;;;;;;;11.27;8.63;;;;;;;11.43;100.00;148990.47;5018429;28;20226;-51
2023/10/24 07:44:20;;;;;;;4.37;2.77;;;;;;;11.63;100.00;149039.03;5020194;28;20229;-52
2023/10/24 07:46:47;;;;;;;5.90;2.80;;;;;;;11.76;100.00;149070.19;5003392;28;20224;-54
2023/10/24 07:49:14;;;;;;;7.53;4.60;;;;;;;11.86;100.00;149093.91;5019391;28;20257;-53
2023/10/24 07:51:40;;;;;;;5.83;3.67;;;;;;;11.89;100.00;149101.38;5017063;28;20234;-54
2023/10/24 07:54:07;;;;;;;5.33;3.10;;;;;;;11.93;100.00;149112.56;5018491;28;20222;-54
2023/10/24 07:56:34;;;;;;;5.47;4.07;;;;;;;11.84;100.00;149088.91;5018884;28;20230;-51
2023/10/24 07:59:03;;;;;;;46.73;33.93;;;;;;;11.89;100.00;149102.59;5016242;28;20256;-52
2023/10/24 08:01:30;;;;;;;13.33;9.80;;;;;;;11.89;100.00;149101.38;5018736;28;20232;-51
2023/10/24 08:03:57;;;;;;;15.33;11.87;;;;;;;11.80;100.00;149080.16;5012942;28;20234;-51
2023/10/24 08:06:24;;;;;;;7.73;6.20;;;;;;;11.84;100.00;149088.91;5019833;28;20234;-52
2023/10/24 08:08:50;;;;;;;4.60;3.50;;;;;;;11.90;100.00;149103.88;5015317;28;20223;-51
2023/10/24 08:11:17;;;;;;;4.07;3.07;;;;;;;11.92;100.00;149110.09;5017114;28;20227;-52
2023/10/24 08:13:44;;;;;;;3.80;2.57;;;;;;;11.96;100.00;149120.06;5016585;28;20218;-53
2023/10/24 08:16:12;;;;;;;2.97;2.20;;;;;;;12.03;100.00;149136.34;5018158;28;20230;-51
2023/10/24 08:18:39;;;;;;;1.77;1.30;;;;;;;12.05;100.00;149141.31;5020915;28;20234;-52
2023/10/24 08:21:07;;;;;;;2.10;1.67;;;;;;;12.12;100.00;149156.28;5016215;28;20234;-51
2023/10/24 08:23:34;;;;;;;2.07;1.73;;;;;;;12.16;100.00;149167.47;5003485;28;21124;-52
2023/10/24 08:26:00;;;;;;;5.07;3.07;;;;;;;12.17;100.00;149168.75;5016112;28;20233;-52
2023/10/24 08:28:27;;;;;;;3.30;2.63;;;;;;;12.19;100.00;149174.97;5019464;28;20231;-51
2023/10/24 08:30:54;;;;;;;4.10;2.90;;;;;;;12.20;100.00;149177.44;5014904;28;20229;-52
2023/10/24 08:33:22;;;;;;;7.27;3.90;;;;;;;12.28;100.00;149194.91;5016751;28;20241;-54
2023/10/24 08:35:49;;;;;;;8.17;6.00;;;;;;;12.26;100.00;149191.16;5015686;28;20571;-53
2023/10/24 08:38:15;;;;;;;18.80;11.30;;;;;;;12.15;100.00;149164.97;5020569;28;20233;-54
2023/10/24 08:40:42;;;;;;;11.33;7.87;;;;;;;12.22;100.00;149181.16;5015242;28;20230;-54
2023/10/24 08:43:09;;;;;;;9.93;6.17;;;;;;;12.23;100.00;149184.94;5018855;28;20230;-55
2023/10/24 08:45:36;;;;;;;18.00;14.27;;;;;;;12.18;100.00;149171.25;5017441;28;20587;-52
2023/10/24 08:48:05;;;;;;;10.03;7.67;;;;;;;12.21;100.00;149179.94;5015568;28;20244;-51
2023/10/24 08:50:38;;;;;;;11.70;6.77;;;;;;;12.17;100.00;149169.97;5020509;28;20715;-53
2023/10/24 08:53:13;;;;;;;8.60;6.07;;;;;;;12.20;100.00;149177.44;5015285;28;20238;-52
2023/10/24 08:55:47;;;;;;;7.40;5.37;;;;;;;12.20;100.00;149176.19;5013708;28;20227;-57
2023/10/24 08:58:17;;;;;;;9.77;7.53;;;;;;;12.24;100.00;149187.44;5018676;28;20219;-53
2023/10/24 09:00:44;;;;;;;6.40;5.80;;;;;;;12.22;100.00;149181.16;5003325;28;20230;-53
2023/10/24 09:03:11;;;;;;;10.80;7.13;;;;;;;12.14;100.00;149161.25;5016210;28;20706;-53
2023/10/24 09:05:41;;;;;;;8.33;6.00;;;;;;;12.20;100.00;149177.44;5016159;28;20230;-52
2023/10/24 09:08:08;;;;;;;8.93;5.57;;;;;;;12.16;100.00;149167.47;4993197;28;20240;-54
2023/10/24 09:10:36;;;;;;;8.13;5.57;;;;;;;12.20;100.00;149176.19;5015287;28;20212;-53
2023/10/24 09:13:05;;;;;;;6.88;6.13;;;;;;;12.30;100.00;149201.13;5013277;28;20760;-52
2023/10/24 09:15:37;;;;;;;8.97;6.67;;;;;;;12.26;100.00;149191.16;5018288;28;20258;-54
2023/10/24 09:18:05;;;;;;;12.50;6.83;;;;;;;12.18;100.00;149172.47;5015568;28;20310;-50
2023/10/24 09:20:36;;;;;;;6.40;5.80;;;;;;;12.16;100.00;149167.47;5020704;28;20760;-52
2023/10/24 09:23:21;;;;;;;10.40;6.93;;;;;;;12.18;100.00;149172.47;4980059;28;21208;-50
2023/10/24 09:25:49;;;;;;;6.53;5.90;;;;;;;12.24;100.00;149186.16;5014297;28;20216;-54
2023/10/24 09:28:16;;;;;;;6.10;5.50;;;;;;;12.27;100.00;149193.63;5016777;28;20232;-50
2023/10/24 09:30:43;;;;;;;6.97;5.70;;;;;;;12.34;100.00;149209.88;5016290;28;20234;-51
2023/10/24 09:33:10;;;;;;;9.30;7.03;;;;;;;12.29;100.00;149198.63;5016783;28;20227;-51
2023/10/24 09:35:37;;;;;;;7.97;6.13;;;;;;;12.37;100.00;149218.59;5016407;28;20212;-50
2023/10/24 09:38:06;;;;;;;6.90;6.20;;;;;;;12.43;100.00;149232.31;5011779;28;20599;-51
2023/10/24 09:40:39;;;;;;;6.73;6.03;;;;;;;12.49;100.00;149246.00;5017406;28;20227;-51
2023/10/24 09:43:12;;;;;;;6.13;5.37;;;;;;;12.53;100.00;149257.25;5014619;28;20227;-52
2023/10/24 09:45:42;;;;;;;7.13;5.77;;;;;;;12.52;100.00;149254.75;5014617;28;20303;-50
2023/10/24 09:48:10;;;;;;;8.50;6.63;;;;;;;12.55;100.00;149260.97;5019156;28;20341;-50
2023/10/24 09:50:39;;;;;;;7.87;6.63;;;;;;;12.58;100.00;149267.25;5018456;28;20220;-49
2023/10/24 09:53:06;;;;;;;8.40;5.97;;;;;;;12.62;100.00;149278.44;4999086;28;20254;-52
2023/10/24 09:55:39;;;;;;;9.97;6.53;;;;;;;12.68;100.00;149293.41;5015333;28;20736;-53
2023/10/24 09:58:08;;;;;;;7.43;6.63;;;;;;;12.81;100.00;149323.34;5015069;28;21112;-54
2023/10/24 10:00:36;;;;;;;7.27;5.70;;;;;;;12.91;100.00;149347.03;5015826;28;20315;-51
2023/10/24 10:03:05;;;;;;;8.50;6.07;;;;;;;12.94;100.00;149354.50;5013266;28;20664;-50
2023/10/24 10:05:38;;;;;;;6.77;6.07;;;;;;;13.04;100.00;149379.44;5016644;28;20223;-52
2023/10/24 10:08:07;;;;;;;8.83;6.07;;;;;;;13.14;100.00;149404.41;5015021;28;20243;-50
2023/10/24 10:10:38;;;;;;;52.27;34.53;;;;;;;13.17;100.00;149409.41;5015933;28;20216;-50
2023/10/24 10:13:11;;;;;;;17.80;11.73;;;;;;;13.03;100.00;149375.72;5015796;28;20238;-50
2023/10/24 10:15:50;;;;;;;10.30;8.87;;;;;;;13.12;100.00;149398.19;5017908;28;20220;-50
2023/10/24 10:18:29;;;;;;;32.77;25.60;;;;;;;13.11;100.00;149395.69;5016176;28;20237;-53
2023/10/24 10:21:07;;;;;;;13.77;10.70;;;;;;;13.06;100.00;149384.44;5014731;28;20220;-52
2023/10/24 10:23:57;;;;;;;11.67;9.73;;;;;;;13.02;100.00;149374.47;5017456;28;20733;-54
2023/10/24 10:26:39;;;;;;;12.47;9.63;;;;;;;13.18;100.00;149413.16;5010982;28;20227;-50
2023/10/24 10:29:14;;;;;;;14.60;9.73;;;;;;;13.25;100.00;149430.59;5014310;28;20240;-50
2023/10/24 10:31:55;;;;;;;10.13;8.83;;;;;;;13.29;100.00;149440.56;5011772;28;20227;-52
2023/10/24 10:34:32;;;;;;;11.90;8.50;;;;;;;13.32;100.00;149445.56;5016441;28;20219;-52
2023/10/24 10:36:59;;;;;;;9.77;8.27;;;;;;;13.25;100.00;149429.38;5011579;28;20233;-52
2023/10/24 10:39:26;;;;;;;10.70;8.17;;;;;;;13.13;100.00;149400.69;5018822;28;20687;-50
2023/10/24 10:41:54;;;;;;;11.13;9.43;;;;;;;13.09;100.00;149391.94;5018514;28;20222;-54
2023/10/24 10:44:41;;;;;;;27.17;10.27;;;;;;;13.06;100.00;149384.44;5023507;28;20627;-54
2023/10/24 10:47:11;;;;;;;11.50;10.27;;;;;;;13.02;100.00;149374.47;5018593;28;20677;-50
2023/10/24 10:49:42;;;;;;;11.40;8.83;;;;;;;13.04;100.00;149378.22;5021289;28;20255;-51
2023/10/24 10:52:20;;;;;;;202.73;14.20;;;;;;;12.84;100.00;149330.81;5020012;28;20232;-50
2023/10/24 10:54:57;;;;;;;84.60;12.10;;;;;;;12.73;100.00;149303.38;5018081;28;20217;-50
2023/10/24 10:57:32;;;;;;;51.60;10.10;;;;;;;12.72;100.00;149300.88;5021884;28;20230;-51
2023/10/24 11:00:04;;;;;;;58.47;11.43;;;;;;;12.75;100.00;149309.59;5019434;28;20665;-50
2023/10/24 11:03:03;;;;;;;104.13;11.87;;;;;;;12.65;100.00;149284.69;5019738;28;20220;-50
2023/10/24 11:05:50;;;;;;;44.30;9.97;;;;;;;12.57;100.00;149265.97;5016540;28;20230;-50
2023/10/24 11:08:19;;;;;;;42.27;10.83;;;;;;;12.57;100.00;149264.75;5017831;28;20227;-51
2023/10/24 11:10:55;;;;;;;19.70;9.10;;;;;;;12.66;100.00;149288.41;5021055;28;20299;-51